sensor_id;sensor_type;location;lat;lon;timestamp;temperature;humidity
22986;DHT22;11659;51.092;7.080;2022-09-17T00:02:02;10.50;99.90
22986;DHT22;11659;51.092;7.080;2022-09-17T00:04:29;10.50;99.90
22986;DHT22;11659;51.092;7.080;2022-09-17T00:06:55;10.40;99.90
22986;DHT22;11659;51.092;7.080;2022-09-17T00:09:21;10.40;99.90
22986;DHT22;11659;51.092;7.080;2022-09-17T00:11:47;10.40;99.90
22986;DHT22;11659;51.092;7.080;2022-09-17T00:14:16;10.40;99.90
22986;DHT22;11659;51.092;7.080;2022-09-17T00:16:43;10.40;99.90
22986;DHT22;11659;51.092;7.080;2022-09-17T00:19:13;10.40;99.90
22986;DHT22;11659;51.092;7.080;2022-09-17T00:21:41;10.30;99.90
22986;DHT22;11659;51.092;7.080;2022-09-17T00:24:08;10.40;99.90
22986;DHT22;11659;51.092;7.080;2022-09-17T00:26:35;10.40;99.90
22986;DHT22;11659;51.092;7.080;2022-09-17T00:29:02;10.40;99.90
22986;DHT22;11659;51.092;7.080;2022-09-17T00:31:29;10.40;99.90
22986;DHT22;11659;51.092;7.080;2022-09-17T00:33:57;10.40;99.90
22986;DHT22;11659;51.092;7.080;2022-09-17T00:36:23;10.40;99.90
22986;DHT22;11659;51.092;7.080;2022-09-17T00:38:51;10.40;99.90
22986;DHT22;11659;51.092;7.080;2022-09-17T00:41:18;10.40;99.90
22986;DHT22;11659;51.092;7.080;2022-09-17T00:43:47;10.40;99.90
22986;DHT22;11659;51.092;7.080;2022-09-17T00:46:28;10.40;99.90
22986;DHT22;11659;51.092;7.080;2022-09-17T00:48:58;10.40;99.90
22986;DHT22;11659;51.092;7.080;2022-09-17T00:51:29;10.40;99.90
22986;DHT22;11659;51.092;7.080;2022-09-17T00:53:59;10.40;99.90
22986;DHT22;11659;51.092;7.080;2022-09-17T00:56:28;10.40;99.90
22986;DHT22;11659;51.092;7.080;2022-09-17T00:58:56;10.40;99.90
22986;DHT22;11659;51.092;7.080;2022-09-17T01:01:23;10.40;99.90
22986;DHT22;11659;51.092;7.080;2022-09-17T01:03:49;10.40;99.90
22986;DHT22;11659;51.092;7.080;2022-09-17T01:06:21;10.40;99.90
22986;DHT22;11659;51.092;7.080;2022-09-17T01:09:02;10.40;99.90
22986;DHT22;11659;51.092;7.080;2022-09-17T01:11:43;10.40;99.90
22986;DHT22;11659;51.092;7.080;2022-09-17T01:14:20;10.40;99.90
22986;DHT22;11659;51.092;7.080;2022-09-17T01:16:53;10.40;99.90
22986;DHT22;11659;51.092;7.080;2022-09-17T01:19:41;10.40;99.90
22986;DHT22;11659;51.092;7.080;2022-09-17T01:22:18;10.40;99.90
22986;DHT22;11659;51.092;7.080;2022-09-17T01:25:05;10.40;99.90
22986;DHT22;11659;51.092;7.080;2022-09-17T01:31:01;10.30;99.90
22986;DHT22;11659;51.092;7.080;2022-09-17T01:33:35;10.30;99.90
22986;DHT22;11659;51.092;7.080;2022-09-17T01:36:16;10.30;99.90
22986;DHT22;11659;51.092;7.080;2022-09-17T01:38:51;10.30;99.90
22986;DHT22;11659;51.092;7.080;2022-09-17T01:41:25;10.30;99.90
22986;DHT22;11659;51.092;7.080;2022-09-17T01:43:57;10.30;99.90
22986;DHT22;11659;51.092;7.080;2022-09-17T01:46:29;10.30;99.90
22986;DHT22;11659;51.092;7.080;2022-09-17T01:48:59;10.20;99.90
22986;DHT22;11659;51.092;7.080;2022-09-17T01:51:29;10.20;99.90
22986;DHT22;11659;51.092;7.080;2022-09-17T01:53:59;10.20;99.90
22986;DHT22;11659;51.092;7.080;2022-09-17T01:56:30;10.20;99.90
22986;DHT22;11659;51.092;7.080;2022-09-17T01:59:04;10.30;99.90
22986;DHT22;11659;51.092;7.080;2022-09-17T02:01:34;10.20;99.90
22986;DHT22;11659;51.092;7.080;2022-09-17T02:04:06;10.30;99.90
22986;DHT22;11659;51.092;7.080;2022-09-17T02:06:37;10.30;99.90
22986;DHT22;11659;51.092;7.080;2022-09-17T02:09:09;10.30;99.90
22986;DHT22;11659;51.092;7.080;2022-09-17T02:11:37;10.30;99.90
22986;DHT22;11659;51.092;7.080;2022-09-17T02:14:07;10.30;99.90
22986;DHT22;11659;51.092;7.080;2022-09-17T02:16:38;10.30;99.90
22986;DHT22;11659;51.092;7.080;2022-09-17T02:19:09;10.30;99.90
22986;DHT22;11659;51.092;7.080;2022-09-17T02:21:42;10.30;99.90
22986;DHT22;11659;51.092;7.080;2022-09-17T02:24:15;10.30;99.90
22986;DHT22;11659;51.092;7.080;2022-09-17T02:26:49;10.30;99.90
22986;DHT22;11659;51.092;7.080;2022-09-17T02:29:22;10.30;99.90
22986;DHT22;11659;51.092;7.080;2022-09-17T02:31:50;10.30;99.90
22986;DHT22;11659;51.092;7.080;2022-09-17T02:34:17;10.30;99.90
22986;DHT22;11659;51.092;7.080;2022-09-17T02:36:44;10.30;99.90
22986;DHT22;11659;51.092;7.080;2022-09-17T02:39:10;10.30;99.90
22986;DHT22;11659;51.092;7.080;2022-09-17T02:41:44;10.30;99.90
22986;DHT22;11659;51.092;7.080;2022-09-17T02:44:20;10.30;99.90
22986;DHT22;11659;51.092;7.080;2022-09-17T02:47:03;10.30;99.90
22986;DHT22;11659;51.092;7.080;2022-09-17T02:49:52;10.30;99.90
22986;DHT22;11659;51.092;7.080;2022-09-17T02:52:28;10.30;99.90
22986;DHT22;11659;51.092;7.080;2022-09-17T02:55:01;10.30;99.90
22986;DHT22;11659;51.092;7.080;2022-09-17T02:57:38;10.30;99.90
22986;DHT22;11659;51.092;7.080;2022-09-17T03:00:08;10.30;99.90
22986;DHT22;11659;51.092;7.080;2022-09-17T03:02:41;10.30;99.90
22986;DHT22;11659;51.092;7.080;2022-09-17T03:05:09;10.30;99.90
22986;DHT22;11659;51.092;7.080;2022-09-17T03:07:36;10.30;99.90
22986;DHT22;11659;51.092;7.080;2022-09-17T03:10:02;10.30;99.90
22986;DHT22;11659;51.092;7.080;2022-09-17T03:12:28;10.30;99.90
22986;DHT22;11659;51.092;7.080;2022-09-17T03:14:54;10.30;99.90
22986;DHT22;11659;51.092;7.080;2022-09-17T03:17:20;10.30;99.90
22986;DHT22;11659;51.092;7.080;2022-09-17T03:19:47;10.30;99.90
22986;DHT22;11659;51.092;7.080;2022-09-17T03:22:13;10.30;99.90
22986;DHT22;11659;51.092;7.080;2022-09-17T03:24:39;10.30;99.90
22986;DHT22;11659;51.092;7.080;2022-09-17T03:27:05;10.30;99.90
22986;DHT22;11659;51.092;7.080;2022-09-17T03:29:31;10.30;99.90
22986;DHT22;11659;51.092;7.080;2022-09-17T03:31:57;10.30;99.90
22986;DHT22;11659;51.092;7.080;2022-09-17T03:34:23;10.30;99.90
22986;DHT22;11659;51.092;7.080;2022-09-17T03:36:50;10.30;99.90
22986;DHT22;11659;51.092;7.080;2022-09-17T03:39:16;10.30;99.90
22986;DHT22;11659;51.092;7.080;2022-09-17T03:41:42;10.30;99.90
22986;DHT22;11659;51.092;7.080;2022-09-17T03:44:08;10.30;99.90
22986;DHT22;11659;51.092;7.080;2022-09-17T03:46:35;10.30;99.90
22986;DHT22;11659;51.092;7.080;2022-09-17T03:49:01;10.30;99.90
22986;DHT22;11659;51.092;7.080;2022-09-17T03:51:27;10.30;99.90
22986;DHT22;11659;51.092;7.080;2022-09-17T03:53:54;10.20;99.90
22986;DHT22;11659;51.092;7.080;2022-09-17T03:56:20;10.20;99.90
22986;DHT22;11659;51.092;7.080;2022-09-17T03:58:46;10.20;99.90
22986;DHT22;11659;51.092;7.080;2022-09-17T04:01:12;10.20;99.90
22986;DHT22;11659;51.092;7.080;2022-09-17T04:03:38;10.20;99.90
22986;DHT22;11659;51.092;7.080;2022-09-17T04:06:04;10.20;99.90
22986;DHT22;11659;51.092;7.080;2022-09-17T04:08:30;10.20;99.90
22986;DHT22;11659;51.092;7.080;2022-09-17T04:10:57;10.30;99.90
22986;DHT22;11659;51.092;7.080;2022-09-17T04:13:23;10.30;99.90
22986;DHT22;11659;51.092;7.080;2022-09-17T04:15:49;10.20;99.90
22986;DHT22;11659;51.092;7.080;2022-09-17T04:18:16;10.30;99.90
22986;DHT22;11659;51.092;7.080;2022-09-17T04:20:42;10.30;99.90
22986;DHT22;11659;51.092;7.080;2022-09-17T04:23:09;10.30;99.90
22986;DHT22;11659;51.092;7.080;2022-09-17T04:25:35;10.30;99.90
22986;DHT22;11659;51.092;7.080;2022-09-17T04:28:02;10.30;99.90
22986;DHT22;11659;51.092;7.080;2022-09-17T04:30:28;10.30;99.90
22986;DHT22;11659;51.092;7.080;2022-09-17T04:32:54;10.30;99.90
22986;DHT22;11659;51.092;7.080;2022-09-17T04:35:20;10.30;99.90
22986;DHT22;11659;51.092;7.080;2022-09-17T04:37:51;10.30;99.90
22986;DHT22;11659;51.092;7.080;2022-09-17T04:40:18;10.30;99.90
22986;DHT22;11659;51.092;7.080;2022-09-17T04:42:43;10.30;99.90
22986;DHT22;11659;51.092;7.080;2022-09-17T04:45:11;10.30;99.90
22986;DHT22;11659;51.092;7.080;2022-09-17T04:47:37;10.30;99.90
22986;DHT22;11659;51.092;7.080;2022-09-17T04:50:04;10.30;99.90
22986;DHT22;11659;51.092;7.080;2022-09-17T04:52:30;10.30;99.90
22986;DHT22;11659;51.092;7.080;2022-09-17T04:54:56;10.40;99.90
22986;DHT22;11659;51.092;7.080;2022-09-17T04:57:23;10.40;99.90
22986;DHT22;11659;51.092;7.080;2022-09-17T04:59:50;10.40;99.90
22986;DHT22;11659;51.092;7.080;2022-09-17T05:02:17;10.40;99.90
22986;DHT22;11659;51.092;7.080;2022-09-17T05:04:43;10.40;99.90
22986;DHT22;11659;51.092;7.080;2022-09-17T05:07:09;10.30;99.90
22986;DHT22;11659;51.092;7.080;2022-09-17T05:09:35;10.40;99.90
22986;DHT22;11659;51.092;7.080;2022-09-17T05:12:01;10.30;99.90
22986;DHT22;11659;51.092;7.080;2022-09-17T05:14:27;10.30;99.90
22986;DHT22;11659;51.092;7.080;2022-09-17T05:16:53;10.30;99.90
22986;DHT22;11659;51.092;7.080;2022-09-17T05:19:20;10.30;99.90
22986;DHT22;11659;51.092;7.080;2022-09-17T05:21:46;10.20;99.90
22986;DHT22;11659;51.092;7.080;2022-09-17T05:24:12;10.20;99.90
22986;DHT22;11659;51.092;7.080;2022-09-17T05:26:38;10.20;99.90
22986;DHT22;11659;51.092;7.080;2022-09-17T05:29:04;10.20;99.90
22986;DHT22;11659;51.092;7.080;2022-09-17T05:31:30;10.10;99.90
22986;DHT22;11659;51.092;7.080;2022-09-17T05:33:57;10.10;99.90
22986;DHT22;11659;51.092;7.080;2022-09-17T05:36:24;10.10;99.90
22986;DHT22;11659;51.092;7.080;2022-09-17T05:38:50;10.10;99.90
22986;DHT22;11659;51.092;7.080;2022-09-17T05:41:16;10.10;99.90
22986;DHT22;11659;51.092;7.080;2022-09-17T05:43:42;10.10;99.90
22986;DHT22;11659;51.092;7.080;2022-09-17T05:46:08;10.10;99.90
22986;DHT22;11659;51.092;7.080;2022-09-17T05:48:34;10.10;99.90
22986;DHT22;11659;51.092;7.080;2022-09-17T05:51:00;10.00;99.90
22986;DHT22;11659;51.092;7.080;2022-09-17T05:53:27;10.10;99.90
22986;DHT22;11659;51.092;7.080;2022-09-17T05:55:55;10.10;99.90
22986;DHT22;11659;51.092;7.080;2022-09-17T05:58:21;10.10;99.90
22986;DHT22;11659;51.092;7.080;2022-09-17T06:00:48;10.10;99.90
22986;DHT22;11659;51.092;7.080;2022-09-17T06:03:15;10.10;99.90
22986;DHT22;11659;51.092;7.080;2022-09-17T06:05:42;10.10;99.90
22986;DHT22;11659;51.092;7.080;2022-09-17T06:08:08;10.10;99.90
22986;DHT22;11659;51.092;7.080;2022-09-17T06:10:36;10.20;99.90
22986;DHT22;11659;51.092;7.080;2022-09-17T06:13:03;10.20;99.90
22986;DHT22;11659;51.092;7.080;2022-09-17T06:15:29;10.30;99.90
22986;DHT22;11659;51.092;7.080;2022-09-17T06:17:55;10.30;99.90
22986;DHT22;11659;51.092;7.080;2022-09-17T06:20:21;10.40;99.90
22986;DHT22;11659;51.092;7.080;2022-09-17T06:22:47;10.40;99.90
22986;DHT22;11659;51.092;7.080;2022-09-17T06:25:13;10.40;99.90
22986;DHT22;11659;51.092;7.080;2022-09-17T06:27:41;10.50;99.90
22986;DHT22;11659;51.092;7.080;2022-09-17T06:30:07;10.50;99.90
22986;DHT22;11659;51.092;7.080;2022-09-17T06:32:34;10.60;99.90
22986;DHT22;11659;51.092;7.080;2022-09-17T06:34:59;10.60;99.90
22986;DHT22;11659;51.092;7.080;2022-09-17T06:37:26;10.60;99.90
22986;DHT22;11659;51.092;7.080;2022-09-17T06:39:53;10.60;99.90
22986;DHT22;11659;51.092;7.080;2022-09-17T06:42:19;10.70;99.90
22986;DHT22;11659;51.092;7.080;2022-09-17T06:44:46;10.70;99.90
22986;DHT22;11659;51.092;7.080;2022-09-17T06:47:12;10.70;99.90
22986;DHT22;11659;51.092;7.080;2022-09-17T06:49:38;10.80;99.90
22986;DHT22;11659;51.092;7.080;2022-09-17T06:52:04;10.80;99.90
22986;DHT22;11659;51.092;7.080;2022-09-17T06:54:30;10.80;99.90
22986;DHT22;11659;51.092;7.080;2022-09-17T06:56:56;10.80;99.90
22986;DHT22;11659;51.092;7.080;2022-09-17T06:59:22;10.70;99.90
22986;DHT22;11659;51.092;7.080;2022-09-17T07:01:50;10.70;99.90
22986;DHT22;11659;51.092;7.080;2022-09-17T07:04:16;10.70;99.90
22986;DHT22;11659;51.092;7.080;2022-09-17T07:06:43;10.70;99.90
22986;DHT22;11659;51.092;7.080;2022-09-17T07:09:10;10.70;99.90
22986;DHT22;11659;51.092;7.080;2022-09-17T07:11:36;10.60;99.90
22986;DHT22;11659;51.092;7.080;2022-09-17T07:14:02;10.60;99.90
22986;DHT22;11659;51.092;7.080;2022-09-17T07:16:30;10.60;99.90
22986;DHT22;11659;51.092;7.080;2022-09-17T07:19:03;10.60;99.90
22986;DHT22;11659;51.092;7.080;2022-09-17T07:21:28;10.60;99.90
22986;DHT22;11659;51.092;7.080;2022-09-17T07:23:54;10.60;99.90
22986;DHT22;11659;51.092;7.080;2022-09-17T07:26:20;10.60;99.90
22986;DHT22;11659;51.092;7.080;2022-09-17T07:28:46;10.70;99.90
22986;DHT22;11659;51.092;7.080;2022-09-17T07:31:13;10.70;99.90
22986;DHT22;11659;51.092;7.080;2022-09-17T07:33:39;10.80;99.90
22986;DHT22;11659;51.092;7.080;2022-09-17T07:36:10;10.80;99.90
22986;DHT22;11659;51.092;7.080;2022-09-17T07:38:36;10.80;99.90
22986;DHT22;11659;51.092;7.080;2022-09-17T07:41:05;10.80;99.90
22986;DHT22;11659;51.092;7.080;2022-09-17T07:43:33;10.80;99.90
22986;DHT22;11659;51.092;7.080;2022-09-17T07:46:01;10.90;99.90
22986;DHT22;11659;51.092;7.080;2022-09-17T07:48:28;10.90;99.90
22986;DHT22;11659;51.092;7.080;2022-09-17T07:50:55;10.90;99.90
22986;DHT22;11659;51.092;7.080;2022-09-17T07:53:22;11.00;99.90
22986;DHT22;11659;51.092;7.080;2022-09-17T07:55:52;11.10;99.90
22986;DHT22;11659;51.092;7.080;2022-09-17T07:58:18;11.20;99.90
22986;DHT22;11659;51.092;7.080;2022-09-17T08:00:44;11.30;99.90
22986;DHT22;11659;51.092;7.080;2022-09-17T08:03:10;11.40;99.90
22986;DHT22;11659;51.092;7.080;2022-09-17T08:05:36;11.50;99.90
22986;DHT22;11659;51.092;7.080;2022-09-17T08:08:03;11.50;99.90
22986;DHT22;11659;51.092;7.080;2022-09-17T08:10:30;11.70;99.90
22986;DHT22;11659;51.092;7.080;2022-09-17T08:12:56;11.70;99.90
22986;DHT22;11659;51.092;7.080;2022-09-17T08:15:23;11.80;99.90
22986;DHT22;11659;51.092;7.080;2022-09-17T08:17:50;11.90;99.90
22986;DHT22;11659;51.092;7.080;2022-09-17T08:20:16;11.90;99.90
22986;DHT22;11659;51.092;7.080;2022-09-17T08:22:43;12.00;99.90
22986;DHT22;11659;51.092;7.080;2022-09-17T08:25:10;12.20;99.90
22986;DHT22;11659;51.092;7.080;2022-09-17T08:27:38;12.20;99.90
22986;DHT22;11659;51.092;7.080;2022-09-17T08:30:05;12.20;99.90
22986;DHT22;11659;51.092;7.080;2022-09-17T08:32:31;12.30;99.90
22986;DHT22;11659;51.092;7.080;2022-09-17T08:34:57;12.30;99.90
22986;DHT22;11659;51.092;7.080;2022-09-17T08:37:23;12.50;99.90
22986;DHT22;11659;51.092;7.080;2022-09-17T08:39:49;12.50;99.90
22986;DHT22;11659;51.092;7.080;2022-09-17T08:42:20;12.60;99.90
22986;DHT22;11659;51.092;7.080;2022-09-17T08:44:51;12.70;99.90
22986;DHT22;11659;51.092;7.080;2022-09-17T08:47:22;12.70;99.90
22986;DHT22;11659;51.092;7.080;2022-09-17T08:49:51;12.80;99.90
22986;DHT22;11659;51.092;7.080;2022-09-17T08:52:58;12.80;99.90
22986;DHT22;11659;51.092;7.080;2022-09-17T08:55:36;12.80;99.90
22986;DHT22;11659;51.092;7.080;2022-09-17T08:58:25;12.80;99.90
22986;DHT22;11659;51.092;7.080;2022-09-17T09:01:03;12.80;99.90
22986;DHT22;11659;51.092;7.080;2022-09-17T09:03:44;12.90;99.90
22986;DHT22;11659;51.092;7.080;2022-09-17T09:06:13;13.00;99.90
22986;DHT22;11659;51.092;7.080;2022-09-17T09:08:42;13.00;99.90
22986;DHT22;11659;51.092;7.080;2022-09-17T09:11:13;13.00;99.90
22986;DHT22;11659;51.092;7.080;2022-09-17T09:13:42;13.10;99.90
22986;DHT22;11659;51.092;7.080;2022-09-17T09:16:14;13.20;99.90
22986;DHT22;11659;51.092;7.080;2022-09-17T09:18:41;13.30;99.90
22986;DHT22;11659;51.092;7.080;2022-09-17T09:21:19;13.30;99.90
22986;DHT22;11659;51.092;7.080;2022-09-17T09:23:52;13.40;99.90
22986;DHT22;11659;51.092;7.080;2022-09-17T09:26:22;13.30;99.90
22986;DHT22;11659;51.092;7.080;2022-09-17T09:29:03;13.30;99.90
22986;DHT22;11659;51.092;7.080;2022-09-17T09:34:25;13.30;99.90
22986;DHT22;11659;51.092;7.080;2022-09-17T09:36:54;13.40;99.90
22986;DHT22;11659;51.092;7.080;2022-09-17T09:39:26;13.50;99.90
22986;DHT22;11659;51.092;7.080;2022-09-17T09:41:59;13.60;99.90
22986;DHT22;11659;51.092;7.080;2022-09-17T09:44:30;13.70;99.90
22986;DHT22;11659;51.092;7.080;2022-09-17T09:50:25;13.90;99.90
22986;DHT22;11659;51.092;7.080;2022-09-17T09:53:07;14.00;99.90
22986;DHT22;11659;51.092;7.080;2022-09-17T09:56:00;14.00;99.90
22986;DHT22;11659;51.092;7.080;2022-09-17T09:58:34;14.00;99.90
22986;DHT22;11659;51.092;7.080;2022-09-17T10:01:01;14.00;99.90
22986;DHT22;11659;51.092;7.080;2022-09-17T10:03:30;14.10;99.90
22986;DHT22;11659;51.092;7.080;2022-09-17T10:06:03;14.20;99.90
22986;DHT22;11659;51.092;7.080;2022-09-17T10:08:35;14.20;99.90
22986;DHT22;11659;51.092;7.080;2022-09-17T10:11:03;14.20;99.90
22986;DHT22;11659;51.092;7.080;2022-09-17T10:13:31;14.30;99.90
22986;DHT22;11659;51.092;7.080;2022-09-17T10:16:14;14.40;99.90
22986;DHT22;11659;51.092;7.080;2022-09-17T10:18:42;14.40;99.90
22986;DHT22;11659;51.092;7.080;2022-09-17T10:21:18;14.50;99.90
22986;DHT22;11659;51.092;7.080;2022-09-17T10:23:44;14.50;99.90
22986;DHT22;11659;51.092;7.080;2022-09-17T10:26:20;14.60;99.90
22986;DHT22;11659;51.092;7.080;2022-09-17T10:28:49;14.70;99.90
22986;DHT22;11659;51.092;7.080;2022-09-17T10:31:17;14.80;99.90
22986;DHT22;11659;51.092;7.080;2022-09-17T10:33:52;14.90;99.90
22986;DHT22;11659;51.092;7.080;2022-09-17T10:36:41;15.10;99.90
22986;DHT22;11659;51.092;7.080;2022-09-17T10:39:30;15.20;99.90
22986;DHT22;11659;51.092;7.080;2022-09-17T10:42:05;15.40;99.90
22986;DHT22;11659;51.092;7.080;2022-09-17T10:44:37;15.50;99.90
22986;DHT22;11659;51.092;7.080;2022-09-17T10:47:09;15.50;99.90
22986;DHT22;11659;51.092;7.080;2022-09-17T10:49:39;15.50;99.90
22986;DHT22;11659;51.092;7.080;2022-09-17T10:52:20;15.50;99.90
22986;DHT22;11659;51.092;7.080;2022-09-17T10:55:16;15.50;99.90
22986;DHT22;11659;51.092;7.080;2022-09-17T10:57:56;15.40;99.90
22986;DHT22;11659;51.092;7.080;2022-09-17T11:00:26;15.30;99.90
22986;DHT22;11659;51.092;7.080;2022-09-17T11:06:18;15.20;99.90
22986;DHT22;11659;51.092;7.080;2022-09-17T11:09:01;15.20;99.90
22986;DHT22;11659;51.092;7.080;2022-09-17T11:11:38;15.10;99.90
22986;DHT22;11659;51.092;7.080;2022-09-17T11:14:18;14.90;99.90
22986;DHT22;11659;51.092;7.080;2022-09-17T11:16:53;14.50;99.90
22986;DHT22;11659;51.092;7.080;2022-09-17T11:19:28;14.20;99.90
22986;DHT22;11659;51.092;7.080;2022-09-17T11:22:02;14.10;99.90
22986;DHT22;11659;51.092;7.080;2022-09-17T11:24:47;14.20;99.90
22986;DHT22;11659;51.092;7.080;2022-09-17T11:27:32;14.40;99.90
22986;DHT22;11659;51.092;7.080;2022-09-17T11:30:13;14.70;99.90
22986;DHT22;11659;51.092;7.080;2022-09-17T11:36:02;15.00;99.90
22986;DHT22;11659;51.092;7.080;2022-09-17T11:38:37;15.10;99.90
22986;DHT22;11659;51.092;7.080;2022-09-17T11:41:09;15.20;99.90
22986;DHT22;11659;51.092;7.080;2022-09-17T11:43:39;15.20;99.90
22986;DHT22;11659;51.092;7.080;2022-09-17T11:46:12;15.20;99.90
22986;DHT22;11659;51.092;7.080;2022-09-17T11:48:43;15.20;99.90
22986;DHT22;11659;51.092;7.080;2022-09-17T11:51:19;15.10;99.90
22986;DHT22;11659;51.092;7.080;2022-09-17T11:53:49;15.10;99.90
22986;DHT22;11659;51.092;7.080;2022-09-17T11:56:24;15.10;99.90
22986;DHT22;11659;51.092;7.080;2022-09-17T11:58:57;15.20;99.90
22986;DHT22;11659;51.092;7.080;2022-09-17T12:01:28;15.10;99.90
22986;DHT22;11659;51.092;7.080;2022-09-17T12:03:57;15.10;99.90
22986;DHT22;11659;51.092;7.080;2022-09-17T12:06:34;15.10;99.90
22986;DHT22;11659;51.092;7.080;2022-09-17T12:09:09;15.00;99.90
22986;DHT22;11659;51.092;7.080;2022-09-17T12:11:40;15.00;99.90
22986;DHT22;11659;51.092;7.080;2022-09-17T12:14:16;15.10;99.90
22986;DHT22;11659;51.092;7.080;2022-09-17T12:16:47;15.40;99.90
22986;DHT22;11659;51.092;7.080;2022-09-17T12:19:20;15.70;99.90
22986;DHT22;11659;51.092;7.080;2022-09-17T12:21:50;15.90;99.90
22986;DHT22;11659;51.092;7.080;2022-09-17T12:24:21;15.80;99.90
22986;DHT22;11659;51.092;7.080;2022-09-17T12:27:13;15.70;99.90
22986;DHT22;11659;51.092;7.080;2022-09-17T12:32:57;15.50;99.90
22986;DHT22;11659;51.092;7.080;2022-09-17T12:35:45;15.80;99.90
22986;DHT22;11659;51.092;7.080;2022-09-17T12:38:23;15.90;99.90
22986;DHT22;11659;51.092;7.080;2022-09-17T12:40:59;15.90;99.90
22986;DHT22;11659;51.092;7.080;2022-09-17T12:43:40;15.60;99.90
22986;DHT22;11659;51.092;7.080;2022-09-17T12:46:20;15.40;99.90
22986;DHT22;11659;51.092;7.080;2022-09-17T12:49:06;15.20;99.90
22986;DHT22;11659;51.092;7.080;2022-09-17T12:51:45;15.00;99.90
22986;DHT22;11659;51.092;7.080;2022-09-17T12:54:32;14.90;99.90
22986;DHT22;11659;51.092;7.080;2022-09-17T12:57:06;14.80;99.90
22986;DHT22;11659;51.092;7.080;2022-09-17T12:59:43;14.70;99.90
22986;DHT22;11659;51.092;7.080;2022-09-17T13:02:14;14.50;99.90
22986;DHT22;11659;51.092;7.080;2022-09-17T13:08:27;14.10;99.90
22986;DHT22;11659;51.092;7.080;2022-09-17T13:11:20;13.70;99.90
22986;DHT22;11659;51.092;7.080;2022-09-17T13:13:55;13.20;99.90
22986;DHT22;11659;51.092;7.080;2022-09-17T13:16:30;12.70;99.90
22986;DHT22;11659;51.092;7.080;2022-09-17T13:19:03;12.40;99.90
22986;DHT22;11659;51.092;7.080;2022-09-17T13:21:31;12.30;99.90
22986;DHT22;11659;51.092;7.080;2022-09-17T13:23:58;12.20;99.90
22986;DHT22;11659;51.092;7.080;2022-09-17T13:26:33;12.20;99.90
22986;DHT22;11659;51.092;7.080;2022-09-17T13:28:59;12.30;99.90
22986;DHT22;11659;51.092;7.080;2022-09-17T13:31:48;12.40;99.90
22986;DHT22;11659;51.092;7.080;2022-09-17T13:34:29;12.50;99.90
22986;DHT22;11659;51.092;7.080;2022-09-17T13:36:56;12.50;99.90
22986;DHT22;11659;51.092;7.080;2022-09-17T13:39:39;12.60;99.90
22986;DHT22;11659;51.092;7.080;2022-09-17T13:42:09;12.80;99.90
22986;DHT22;11659;51.092;7.080;2022-09-17T13:44:38;13.00;99.90
22986;DHT22;11659;51.092;7.080;2022-09-17T13:47:25;13.00;99.90
22986;DHT22;11659;51.092;7.080;2022-09-17T13:49:56;13.10;99.90
22986;DHT22;11659;51.092;7.080;2022-09-17T13:52:38;13.30;99.90
22986;DHT22;11659;51.092;7.080;2022-09-17T13:55:06;13.30;99.90
22986;DHT22;11659;51.092;7.080;2022-09-17T13:57:43;13.40;99.90
22986;DHT22;11659;51.092;7.080;2022-09-17T14:00:46;13.50;99.90
22986;DHT22;11659;51.092;7.080;2022-09-17T14:03:46;13.60;99.90
22986;DHT22;11659;51.092;7.080;2022-09-17T14:06:46;13.60;99.90
22986;DHT22;11659;51.092;7.080;2022-09-17T14:09:31;13.70;99.90
22986;DHT22;11659;51.092;7.080;2022-09-17T14:11:57;13.80;99.90
22986;DHT22;11659;51.092;7.080;2022-09-17T14:14:39;13.90;99.90
22986;DHT22;11659;51.092;7.080;2022-09-17T14:17:06;14.00;99.90
22986;DHT22;11659;51.092;7.080;2022-09-17T14:19:47;14.10;99.90
22986;DHT22;11659;51.092;7.080;2022-09-17T14:22:15;14.20;99.90
22986;DHT22;11659;51.092;7.080;2022-09-17T14:24:47;14.30;99.90
22986;DHT22;11659;51.092;7.080;2022-09-17T14:27:29;14.40;99.90
22986;DHT22;11659;51.092;7.080;2022-09-17T14:30:10;14.40;99.90
22986;DHT22;11659;51.092;7.080;2022-09-17T14:32:46;14.40;99.90
22986;DHT22;11659;51.092;7.080;2022-09-17T14:35:19;14.20;99.90
22986;DHT22;11659;51.092;7.080;2022-09-17T14:37:55;13.80;99.90
22986;DHT22;11659;51.092;7.080;2022-09-17T14:40:23;13.30;99.90
22986;DHT22;11659;51.092;7.080;2022-09-17T14:42:52;12.80;99.90
22986;DHT22;11659;51.092;7.080;2022-09-17T14:45:23;12.40;99.90
22986;DHT22;11659;51.092;7.080;2022-09-17T14:51:21;11.90;99.90
22986;DHT22;11659;51.092;7.080;2022-09-17T14:56:31;11.80;99.90
22986;DHT22;11659;51.092;7.080;2022-09-17T14:58:58;11.90;99.90
22986;DHT22;11659;51.092;7.080;2022-09-17T15:01:26;12.00;99.90
22986;DHT22;11659;51.092;7.080;2022-09-17T15:04:09;12.00;99.90
22986;DHT22;11659;51.092;7.080;2022-09-17T15:06:36;12.00;99.90
22986;DHT22;11659;51.092;7.080;2022-09-17T15:09:02;12.00;99.90
22986;DHT22;11659;51.092;7.080;2022-09-17T15:11:29;12.00;99.90
22986;DHT22;11659;51.092;7.080;2022-09-17T15:13:56;12.10;99.90
22986;DHT22;11659;51.092;7.080;2022-09-17T15:16:25;12.20;99.90
22986;DHT22;11659;51.092;7.080;2022-09-17T15:18:53;12.30;99.90
22986;DHT22;11659;51.092;7.080;2022-09-17T15:21:28;12.50;99.90
22986;DHT22;11659;51.092;7.080;2022-09-17T15:23:58;12.60;99.90
22986;DHT22;11659;51.092;7.080;2022-09-17T15:26:30;12.70;99.90
22986;DHT22;11659;51.092;7.080;2022-09-17T15:28:59;12.70;99.90
22986;DHT22;11659;51.092;7.080;2022-09-17T15:31:27;12.70;99.90
22986;DHT22;11659;51.092;7.080;2022-09-17T15:33:54;12.80;99.90
22986;DHT22;11659;51.092;7.080;2022-09-17T15:36:21;12.80;99.90
22986;DHT22;11659;51.092;7.080;2022-09-17T15:38:47;12.80;99.90
22986;DHT22;11659;51.092;7.080;2022-09-17T15:41:32;12.80;99.90
22986;DHT22;11659;51.092;7.080;2022-09-17T15:44:06;12.80;99.90
22986;DHT22;11659;51.092;7.080;2022-09-17T15:46:32;12.90;99.90
22986;DHT22;11659;51.092;7.080;2022-09-17T15:49:00;12.90;99.90
22986;DHT22;11659;51.092;7.080;2022-09-17T15:51:27;12.90;99.90
22986;DHT22;11659;51.092;7.080;2022-09-17T15:53:55;13.00;99.90
22986;DHT22;11659;51.092;7.080;2022-09-17T15:56:24;13.00;99.90
22986;DHT22;11659;51.092;7.080;2022-09-17T15:58:57;13.00;99.90
22986;DHT22;11659;51.092;7.080;2022-09-17T16:04:22;13.10;99.90
22986;DHT22;11659;51.092;7.080;2022-09-17T16:06:55;13.10;99.90
22986;DHT22;11659;51.092;7.080;2022-09-17T16:09:42;13.10;99.90
22986;DHT22;11659;51.092;7.080;2022-09-17T16:12:11;13.10;99.90
22986;DHT22;11659;51.092;7.080;2022-09-17T16:14:42;13.10;99.90
22986;DHT22;11659;51.092;7.080;2022-09-17T16:20:07;13.20;99.90
22986;DHT22;11659;51.092;7.080;2022-09-17T16:22:34;13.20;99.90
22986;DHT22;11659;51.092;7.080;2022-09-17T16:25:00;13.20;99.90
22986;DHT22;11659;51.092;7.080;2022-09-17T16:27:29;13.10;99.90
22986;DHT22;11659;51.092;7.080;2022-09-17T16:30:00;13.10;99.90